Marlboro, New Jersey
Current Conditions -  °F | °C
As of 4:15 AM on Wednesday 28 Jan 2015 (Local Time) from KBLM Reporting Station
Clear Clear  
Wind Chill:   Ceiling: Unl
Heat Index: 16°   Visibility: 10mi
Dew Point: -2°   Wind: 14mph
Humidity: 45%   Direction: 300°WNW
Pressure: 29.92"   Gusts: NA
Location:  40.32°N, 74.25°W
Report Text: KBLM 280915Z AUTO 30012KT 280V010 10SM CLR M09/M19 A2992 RMK AO1
Loading
Personal Weather Stations






























Interactive Weather Map New forecast layout! Learn more

10-Day Weather Forecast

Advertisements
Track Severe Weather on mobile